ヘルシンキ/ヴァンター の空港の天気 - METARとTAF

ヘルシンキ・ヴァンター国際空港 ( EFHK / HEL ) - フィンランド ヴァンター
飛行場実況気象(Metar)
観測時間04/21 19:50 EEST (04/21 16:50 UTC)
風向・風速南南東 4m/s
視程10km以上
天気現象
なし
気温9℃
湿度50%
気圧1026hPa
METAREFHK 211650Z 16008KT CAVOK 09/M01 Q1026 NOSIG
過去の天気等 Google飛行場航空写真 Wunderground天気予報

過去48時間のMETAR

飛行場予報(TAF)
発表時間: 4/21 17:32 EEST (4/21 14:32 UTC)
予報対象時間: 21日18時 EEST ~ 22日18時 EEST
風向・風速南南東 4m/s
視程10km以上
なし
22日9時 EEST ~ 22日11時 EEST に徐々に
風向・風速南西 5m/s
TAF EFHK 211432Z 2115/2215 15008KT CAVOK
BECMG 2206/2208 22010KT